Terminal Aerodrome Forecast
Issued by NWS Brownsville, TX

Home | Current Version | Previous Version | Text Only | Print | Product List | Glossary On
Versions: 1 2 3 4 5 6 7 8 9 10 11 12 13 14 15 16 17
000
FTUS44 KBRO 260525
TAFBRO
TAF
KBRO 260525Z 2606/2706 00000KT P6SM -RA BKN110
     FM260700 VRB03KT P6SM SKC
     FM261300 05008KT P6SM BKN040
     FM261800 09010KT P6SM SCT040
     FM270100 09002KT P6SM SCT030=

USA.gov is the U.S. government's official web portal to all federal, state and local government web resources and services.